createdAt,value
2018-07-28T00:01:16.377Z,28.90
2018-07-28T00:03:45.876Z,28.90
2018-07-28T00:06:20.770Z,28.80
2018-07-28T00:08:56.292Z,28.80
2018-07-28T00:11:31.395Z,28.80
2018-07-28T00:14:08.213Z,28.70
2018-07-28T00:16:37.666Z,28.70
2018-07-28T00:19:12.852Z,28.60
2018-07-28T00:21:48.142Z,28.60
2018-07-28T00:24:23.393Z,28.60
2018-07-28T00:26:58.439Z,28.50
2018-07-28T00:29:33.481Z,28.50
2018-07-28T00:32:08.378Z,28.50
2018-07-28T00:34:43.948Z,28.50
2018-07-28T00:37:18.951Z,28.50
2018-07-28T00:39:57.484Z,28.50
2018-07-28T00:42:32.651Z,28.40
2018-07-28T00:45:08.150Z,28.30
2018-07-28T00:47:43.191Z,28.10
2018-07-28T00:50:18.010Z,28.00
2018-07-28T00:52:47.495Z,27.90
2018-07-28T00:55:22.346Z,27.90
2018-07-28T00:57:57.228Z,27.90
2018-07-28T01:00:32.701Z,27.80
2018-07-28T01:03:07.670Z,27.50
2018-07-28T01:05:42.582Z,27.40
2018-07-28T01:08:18.167Z,27.60
2018-07-28T01:10:53.151Z,27.60
2018-07-28T01:13:28.822Z,27.60
2018-07-28T01:16:04.372Z,27.60
2018-07-28T01:18:36.029Z,27.60
2018-07-28T01:21:10.843Z,27.70
2018-07-28T01:23:46.072Z,27.70
2018-07-28T01:26:15.273Z,27.70
2018-07-28T01:29:22.042Z,27.60
2018-07-28T01:31:57.473Z,27.60
2018-07-28T01:34:26.645Z,27.60
2018-07-28T01:37:01.466Z,27.60
2018-07-28T01:39:36.388Z,27.70
2018-07-28T01:42:11.574Z,27.60
2018-07-28T01:44:47.323Z,27.50
2018-07-28T01:47:21.978Z,27.50
2018-07-28T01:49:56.869Z,27.50
2018-07-28T01:52:32.363Z,27.50
2018-07-28T01:55:08.634Z,27.40
2018-07-28T01:57:43.634Z,27.40
2018-07-28T02:00:18.700Z,27.40
2018-07-28T02:02:53.641Z,27.40
2018-07-28T02:05:28.923Z,27.40
2018-07-28T02:08:04.722Z,27.40
2018-07-28T02:10:40.058Z,27.40
2018-07-28T02:13:15.038Z,27.40
2018-07-28T02:15:50.253Z,27.40
2018-07-28T02:18:25.034Z,27.40
2018-07-28T02:21:00.599Z,27.30
2018-07-28T02:26:10.420Z,27.30
2018-07-28T02:28:45.346Z,27.30
2018-07-28T02:31:20.594Z,27.30
2018-07-28T02:33:55.944Z,27.20
2018-07-28T02:36:31.127Z,27.20
2018-07-28T02:39:10.454Z,27.20
2018-07-28T02:41:45.296Z,27.20
2018-07-28T02:44:20.442Z,27.20
2018-07-28T02:46:50.904Z,27.10
2018-07-28T02:49:25.717Z,26.70
2018-07-28T02:52:00.704Z,26.40
2018-07-28T02:57:10.433Z,26.40
2018-07-28T02:59:45.345Z,26.30
2018-07-28T03:02:20.244Z,26.20
2018-07-28T03:04:55.684Z,26.10
2018-07-28T03:07:30.755Z,26.10
2018-07-28T03:10:06.456Z,26.20
2018-07-28T03:15:32.048Z,26.00
2018-07-28T03:18:08.207Z,26.00
2018-07-28T03:20:43.083Z,26.00
2018-07-28T03:23:18.471Z,25.80
2018-07-28T03:25:53.515Z,25.70
2018-07-28T03:28:28.609Z,25.70
2018-07-28T03:30:58.830Z,25.80
2018-07-28T03:33:33.781Z,25.80
2018-07-28T03:36:08.614Z,25.70
2018-07-28T03:38:43.603Z,25.60
2018-07-28T03:41:18.399Z,25.60
2018-07-28T03:43:53.347Z,25.60
2018-07-28T03:46:28.362Z,25.70
2018-07-28T03:49:03.542Z,25.60
2018-07-28T03:54:13.419Z,25.70
2018-07-28T03:56:48.440Z,25.60
2018-07-28T03:59:23.251Z,25.70
2018-07-28T04:01:58.151Z,25.60
2018-07-28T04:04:33.206Z,25.60
2018-07-28T04:07:08.186Z,25.60
2018-07-28T04:09:43.655Z,25.40
2018-07-28T04:12:18.479Z,25.30
2018-07-28T04:14:53.951Z,25.40
2018-07-28T04:17:29.291Z,25.20
2018-07-28T04:20:04.171Z,25.20
2018-07-28T04:22:39.411Z,25.10
2018-07-28T04:25:14.894Z,25.10
2018-07-28T04:27:50.296Z,25.10
2018-07-28T04:30:19.718Z,25.20
2018-07-28T04:32:54.624Z,25.40
2018-07-28T04:35:29.529Z,25.30
2018-07-28T04:38:04.926Z,25.40
2018-07-28T04:40:39.837Z,25.30
2018-07-28T04:43:14.943Z,25.40
2018-07-28T04:45:49.979Z,25.40
2018-07-28T04:48:25.207Z,25.40
2018-07-28T04:51:00.274Z,25.40
2018-07-28T04:53:36.957Z,25.50
2018-07-28T04:56:11.977Z,25.50
2018-07-28T04:58:46.921Z,25.40
2018-07-28T05:01:21.953Z,25.40
2018-07-28T05:03:56.847Z,25.50
2018-07-28T05:06:32.313Z,25.60
2018-07-28T05:09:09.548Z,25.60
2018-07-28T05:11:44.642Z,25.60
2018-07-28T05:14:19.748Z,25.60
2018-07-28T05:16:54.927Z,25.60
2018-07-28T05:19:24.381Z,25.70
2018-07-28T05:22:00.125Z,25.80
2018-07-28T05:24:35.230Z,25.80
2018-07-28T05:27:09.971Z,25.90
2018-07-28T05:29:39.667Z,25.90
2018-07-28T05:32:14.753Z,25.90
2018-07-28T05:34:50.018Z,25.90
2018-07-28T05:37:24.845Z,26.00
2018-07-28T05:40:00.577Z,25.90
2018-07-28T05:42:36.076Z,25.90
2018-07-28T05:45:10.860Z,25.90
2018-07-28T05:47:46.270Z,25.90
2018-07-28T05:50:21.394Z,25.80
2018-07-28T05:52:56.390Z,25.40
2018-07-28T05:55:31.448Z,25.40
2018-07-28T05:58:00.949Z,25.40
2018-07-28T06:00:36.464Z,25.20
2018-07-28T06:03:11.614Z,25.20
2018-07-28T06:05:46.960Z,25.10
2018-07-28T06:08:21.978Z,24.90
2018-07-28T06:10:57.144Z,25.00
2018-07-28T06:13:31.831Z,25.00
2018-07-28T06:16:01.348Z,24.90
2018-07-28T06:18:36.197Z,24.80
2018-07-28T06:21:11.416Z,24.50
2018-07-28T06:23:46.371Z,24.20
2018-07-28T06:26:21.430Z,23.80
2018-07-28T06:28:57.937Z,23.70
2018-07-28T06:31:32.964Z,23.60
2018-07-28T06:36:42.951Z,23.60
2018-07-28T06:39:18.114Z,23.70
2018-07-28T06:44:22.548Z,23.90
2018-07-28T06:46:59.024Z,24.00
2018-07-28T06:49:34.012Z,24.10
2018-07-28T06:52:09.104Z,24.30
2018-07-28T06:54:44.135Z,24.40
2018-07-28T06:57:17.710Z,24.50
2018-07-28T06:59:55.512Z,24.30
2018-07-28T07:02:33.558Z,24.20
2018-07-28T07:05:09.098Z,24.20
2018-07-28T07:07:44.067Z,24.30
2018-07-28T07:10:15.556Z,24.30
2018-07-28T07:12:51.003Z,24.40
2018-07-28T07:15:26.207Z,24.60
2018-07-28T07:18:01.628Z,24.60
2018-07-28T07:20:37.066Z,24.50
2018-07-28T07:23:12.063Z,24.50
2018-07-28T07:25:47.193Z,24.30
2018-07-28T07:28:22.276Z,24.20
2018-07-28T07:30:57.642Z,24.40
2018-07-28T07:33:32.577Z,24.30
2018-07-28T07:36:08.301Z,24.40
2018-07-28T07:38:44.934Z,24.50
2018-07-28T07:41:20.105Z,24.40
2018-07-28T07:43:55.651Z,24.30
2018-07-28T07:46:31.371Z,24.20
2018-07-28T07:49:06.635Z,24.20
2018-07-28T07:51:36.083Z,24.50
2018-07-28T07:54:11.063Z,24.50
2018-07-28T07:56:45.993Z,24.50
2018-07-28T07:59:21.088Z,24.30
2018-07-28T08:01:56.143Z,24.40
2018-07-28T08:04:31.167Z,24.50
2018-07-28T08:07:06.383Z,24.60
2018-07-28T08:09:41.784Z,24.60
2018-07-28T08:12:16.768Z,24.70
2018-07-28T08:14:51.762Z,24.60
2018-07-28T08:17:26.997Z,24.60
2018-07-28T08:20:02.335Z,24.60
2018-07-28T08:22:37.850Z,24.70
2018-07-28T08:25:13.003Z,24.90
2018-07-28T08:27:47.870Z,24.90
2018-07-28T08:30:23.400Z,25.00
2018-07-28T08:32:58.409Z,25.00
2018-07-28T08:35:34.052Z,24.90
2018-07-28T08:38:09.111Z,24.90
2018-07-28T08:40:44.403Z,25.00
2018-07-28T08:43:19.208Z,25.10
2018-07-28T08:45:54.287Z,25.10
2018-07-28T08:48:29.302Z,25.20
2018-07-28T08:51:04.748Z,25.30
2018-07-28T08:53:40.318Z,25.30
2018-07-28T08:56:15.409Z,25.50
2018-07-28T08:58:50.470Z,25.50
2018-07-28T09:01:26.027Z,25.20
2018-07-28T09:04:01.432Z,25.20
2018-07-28T09:06:36.858Z,25.50
2018-07-28T09:09:11.961Z,25.60
2018-07-28T09:11:49.260Z,25.80
2018-07-28T09:14:24.464Z,25.70
2018-07-28T09:16:59.588Z,25.50
2018-07-28T09:19:34.572Z,25.70
2018-07-28T09:22:10.848Z,26.00
2018-07-28T09:24:46.543Z,26.10
2018-07-28T09:27:16.111Z,26.20
2018-07-28T09:29:51.089Z,26.40
2018-07-28T09:32:26.705Z,26.40
2018-07-28T09:35:01.776Z,26.60
2018-07-28T09:37:36.686Z,26.70
2018-07-28T09:40:13.719Z,26.80
2018-07-28T09:42:52.270Z,26.80
2018-07-28T09:45:27.399Z,26.80
2018-07-28T09:48:02.895Z,26.90
2018-07-28T09:50:38.431Z,26.80
2018-07-28T09:53:13.351Z,27.00
2018-07-28T09:55:48.189Z,26.90
2018-07-28T09:58:23.003Z,26.80
2018-07-28T10:00:59.380Z,26.70
2018-07-28T10:03:34.310Z,26.60
2018-07-28T10:06:09.658Z,26.50
2018-07-28T10:08:44.700Z,26.30
2018-07-28T10:11:22.867Z,26.00
2018-07-28T10:13:57.895Z,26.20
2018-07-28T10:16:32.798Z,26.30
2018-07-28T10:19:07.852Z,26.40
2018-07-28T10:21:42.807Z,26.70
2018-07-28T10:24:17.658Z,26.90
2018-07-28T10:26:52.743Z,27.00
2018-07-28T10:29:34.437Z,27.10
2018-07-28T10:32:09.344Z,27.20
2018-07-28T10:34:45.171Z,27.30
2018-07-28T10:37:19.984Z,27.40
2018-07-28T10:39:55.175Z,27.50
2018-07-28T10:42:29.842Z,27.70
2018-07-28T10:45:05.302Z,27.80
2018-07-28T10:47:40.756Z,27.50
2018-07-28T10:50:21.211Z,27.40
2018-07-28T10:52:50.713Z,27.40
2018-07-28T10:55:26.006Z,27.60
2018-07-28T10:58:01.102Z,27.50
2018-07-28T11:00:37.468Z,27.40
2018-07-28T11:03:15.177Z,27.20
2018-07-28T11:05:50.920Z,27.10
2018-07-28T11:08:25.642Z,27.20
2018-07-28T11:11:00.713Z,27.50
2018-07-28T11:13:35.480Z,27.60
2018-07-28T11:16:11.078Z,27.70
2018-07-28T11:18:41.725Z,27.70
2018-07-28T11:21:12.292Z,27.80
2018-07-28T11:23:56.398Z,27.70
2018-07-28T11:26:25.744Z,27.70
2018-07-28T11:28:55.715Z,27.60
2018-07-28T11:31:36.791Z,27.60
2018-07-28T11:34:17.391Z,27.60
2018-07-28T11:36:57.935Z,27.60
2018-07-28T11:39:38.448Z,27.60
2018-07-28T11:42:18.864Z,27.60
2018-07-28T11:45:10.018Z,27.60
2018-07-28T11:47:44.995Z,27.80
2018-07-28T11:50:20.106Z,27.90
2018-07-28T11:52:54.947Z,28.00
2018-07-28T11:55:30.000Z,28.10
2018-07-28T11:58:05.446Z,28.00
2018-07-28T12:00:40.640Z,28.00
2018-07-28T12:03:15.580Z,28.00
2018-07-28T12:05:51.552Z,28.10
2018-07-28T12:08:26.617Z,28.10
2018-07-28T12:11:07.022Z,28.20
2018-07-28T12:13:41.856Z,28.30
2018-07-28T12:16:16.587Z,28.30
2018-07-28T12:18:51.711Z,28.50
2018-07-28T12:21:26.814Z,28.40
2018-07-28T12:24:01.865Z,28.50
2018-07-28T12:26:37.213Z,28.70
2018-07-28T12:29:12.067Z,28.60
2018-07-28T12:31:46.888Z,28.60
2018-07-28T12:34:27.079Z,28.60
2018-07-28T12:37:02.075Z,28.70
2018-07-28T12:39:37.098Z,28.80
2018-07-28T12:42:12.706Z,28.90
2018-07-28T12:44:50.795Z,28.80
2018-07-28T12:47:25.915Z,28.90
2018-07-28T12:50:00.756Z,28.80
2018-07-28T12:52:35.852Z,28.80
2018-07-28T12:55:10.820Z,28.80
2018-07-28T12:57:45.998Z,28.70
2018-07-28T13:00:20.933Z,28.60
2018-07-28T13:02:56.602Z,28.60
2018-07-28T13:05:31.645Z,28.90
2018-07-28T13:08:06.698Z,28.90
2018-07-28T13:10:41.615Z,28.90
2018-07-28T13:13:17.289Z,28.90
2018-07-28T13:15:52.339Z,28.90
2018-07-28T13:18:27.538Z,28.90
2018-07-28T13:21:02.472Z,29.10
2018-07-28T13:23:38.583Z,29.40
2018-07-28T13:26:13.662Z,29.20
2018-07-28T13:31:23.226Z,29.10
2018-07-28T13:33:58.926Z,29.00
2018-07-28T13:36:34.112Z,29.00
2018-07-28T13:39:09.450Z,29.10
2018-07-28T13:41:44.749Z,29.30
2018-07-28T13:44:19.648Z,29.50
2018-07-28T13:46:55.083Z,29.40
2018-07-28T13:49:30.099Z,29.40
2018-07-28T13:52:05.213Z,29.30
2018-07-28T13:54:40.432Z,29.10
2018-07-28T13:57:15.586Z,29.30
2018-07-28T13:59:50.620Z,29.40
2018-07-28T14:02:26.079Z,29.40
2018-07-28T14:05:01.126Z,29.50
2018-07-28T14:07:36.033Z,29.50
2018-07-28T14:10:11.230Z,29.40
2018-07-28T14:15:20.885Z,29.40
2018-07-28T14:17:56.155Z,29.30
2018-07-28T14:20:31.386Z,29.20
2018-07-28T14:23:06.566Z,29.10
2018-07-28T14:25:42.020Z,29.00
2018-07-28T14:28:17.140Z,29.00
2018-07-28T14:30:52.677Z,29.10
2018-07-28T14:33:27.556Z,29.10
2018-07-28T14:36:02.824Z,29.00
2018-07-28T14:38:38.139Z,28.90
2018-07-28T14:41:13.172Z,29.00
2018-07-28T14:43:43.072Z,28.90
2018-07-28T14:46:18.533Z,28.80
2018-07-28T14:48:53.437Z,28.60
2018-07-28T14:51:35.085Z,28.60
2018-07-28T14:54:10.070Z,28.50
2018-07-28T14:56:45.012Z,28.60
2018-07-28T14:59:20.457Z,28.70
2018-07-28T15:01:55.825Z,28.60
2018-07-28T15:04:30.835Z,28.60
2018-07-28T15:07:06.101Z,28.70
2018-07-28T15:09:41.200Z,28.60
2018-07-28T15:12:16.403Z,28.50
2018-07-28T15:14:51.414Z,28.50
2018-07-28T15:17:26.201Z,28.40
2018-07-28T15:20:01.406Z,28.40
2018-07-28T15:22:36.519Z,28.50
2018-07-28T15:25:11.954Z,28.60
2018-07-28T15:27:46.935Z,28.60
2018-07-28T15:30:21.770Z,28.50
2018-07-28T15:32:56.541Z,28.50
2018-07-28T15:35:31.613Z,28.50
2018-07-28T15:38:06.634Z,28.50
2018-07-28T15:40:41.846Z,28.50
2018-07-28T15:43:16.543Z,28.40
2018-07-28T15:45:51.781Z,28.40
2018-07-28T15:51:02.394Z,28.40
2018-07-28T15:53:37.695Z,28.40
2018-07-28T15:56:13.014Z,28.50
2018-07-28T15:58:47.843Z,28.70
2018-07-28T16:03:57.242Z,28.70
2018-07-28T16:06:32.159Z,28.60
2018-07-28T16:09:09.139Z,28.60
2018-07-28T16:11:44.851Z,28.50
2018-07-28T16:14:20.045Z,28.50
2018-07-28T16:16:55.139Z,28.30
2018-07-28T16:19:30.072Z,28.20
2018-07-28T16:21:59.308Z,28.30
2018-07-28T16:24:34.146Z,28.40
2018-07-28T16:27:09.273Z,28.50
2018-07-28T16:29:44.094Z,28.30
2018-07-28T16:32:19.163Z,28.20
2018-07-28T16:34:53.851Z,28.20
2018-07-28T16:37:28.824Z,28.20
2018-07-28T16:40:04.223Z,28.00
2018-07-28T16:42:39.499Z,27.80
2018-07-28T16:45:14.540Z,27.80
2018-07-28T16:47:49.645Z,27.90
2018-07-28T16:50:25.390Z,27.90
2018-07-28T16:53:00.256Z,27.80
2018-07-28T16:58:13.388Z,27.60
2018-07-28T17:00:42.924Z,27.50
2018-07-28T17:03:17.670Z,27.40
2018-07-28T17:05:52.930Z,27.30
2018-07-28T17:08:28.318Z,27.40
2018-07-28T17:11:04.178Z,27.40
2018-07-28T17:13:39.166Z,27.40
2018-07-28T17:16:14.597Z,27.50
2018-07-28T17:18:49.862Z,27.50
2018-07-28T17:21:25.281Z,27.60
2018-07-28T17:24:00.319Z,27.60
2018-07-28T17:26:35.416Z,27.50
2018-07-28T17:29:10.569Z,27.50
2018-07-28T17:34:15.015Z,27.50
2018-07-28T17:36:50.204Z,27.30
2018-07-28T17:39:25.012Z,27.40
2018-07-28T17:42:00.118Z,27.50
2018-07-28T17:47:09.812Z,27.50
2018-07-28T17:49:44.877Z,27.60
2018-07-28T17:52:20.523Z,27.70
2018-07-28T17:54:56.458Z,27.50
2018-07-28T17:57:31.754Z,27.20
2018-07-28T18:00:08.189Z,27.30
2018-07-28T18:02:43.379Z,27.30
2018-07-28T18:07:52.940Z,27.30
2018-07-28T18:10:28.181Z,27.20
2018-07-28T18:13:03.842Z,27.30
2018-07-28T18:15:39.117Z,27.30
2018-07-28T18:18:14.407Z,27.20
2018-07-28T18:20:49.574Z,27.10
2018-07-28T18:23:24.483Z,27.10
2018-07-28T18:25:59.679Z,27.00
2018-07-28T18:28:34.688Z,27.00
2018-07-28T18:31:14.959Z,26.80
2018-07-28T18:33:50.334Z,26.70
2018-07-28T18:36:25.339Z,26.70
2018-07-28T18:39:00.765Z,26.60
2018-07-28T18:41:36.135Z,26.60
2018-07-28T18:44:11.498Z,26.50
2018-07-28T18:46:46.305Z,26.50
2018-07-28T18:49:21.429Z,26.40
2018-07-28T18:51:56.506Z,26.30
2018-07-28T18:54:31.348Z,26.20
2018-07-28T18:57:06.550Z,26.30
2018-07-28T19:02:16.541Z,26.20
2018-07-28T19:04:52.158Z,26.20
2018-07-28T19:07:27.184Z,26.10
2018-07-28T19:10:02.486Z,26.00
2018-07-28T19:12:42.336Z,25.90
2018-07-28T19:15:17.788Z,25.90
2018-07-28T19:17:58.593Z,25.80
2018-07-28T19:20:33.886Z,25.70
2018-07-28T19:23:14.462Z,25.60
2018-07-28T19:25:49.597Z,25.60
2018-07-28T19:28:29.730Z,25.60
2018-07-28T19:31:05.215Z,25.50
2018-07-28T19:33:40.236Z,25.40
2018-07-28T19:36:20.639Z,25.40
2018-07-28T19:38:55.984Z,25.40
2018-07-28T19:41:35.100Z,25.50
2018-07-28T19:44:11.125Z,25.50
2018-07-28T19:46:46.216Z,25.30
2018-07-28T19:49:28.610Z,25.30
2018-07-28T19:52:04.149Z,25.40
2018-07-28T19:54:39.187Z,25.30
2018-07-28T19:57:15.264Z,25.10
2018-07-28T19:59:50.552Z,24.90
2018-07-28T20:02:25.622Z,24.80
2018-07-28T20:05:00.769Z,24.80
2018-07-28T20:07:35.965Z,24.80
2018-07-28T20:10:05.588Z,24.80
2018-07-28T20:12:41.213Z,24.90
2018-07-28T20:15:16.832Z,24.90
2018-07-28T20:17:52.085Z,24.90
2018-07-28T20:20:26.987Z,24.90
2018-07-28T20:23:02.303Z,24.80
2018-07-28T20:25:37.761Z,24.90
2018-07-28T20:28:12.908Z,24.80
2018-07-28T20:30:47.940Z,24.70
2018-07-28T20:33:23.173Z,24.60
2018-07-28T20:35:58.296Z,24.70
2018-07-28T20:38:33.588Z,24.70
2018-07-28T20:41:03.977Z,24.70
2018-07-28T20:43:38.784Z,24.60
2018-07-28T20:46:14.034Z,24.60
2018-07-28T20:48:48.947Z,24.50
2018-07-28T20:51:23.983Z,24.50
2018-07-28T20:53:59.388Z,24.50
2018-07-28T20:56:34.787Z,24.50
2018-07-28T20:59:09.681Z,24.50
2018-07-28T21:01:44.710Z,24.50
2018-07-28T21:04:19.733Z,24.50
2018-07-28T21:06:55.597Z,24.40
2018-07-28T21:09:30.733Z,24.30
2018-07-28T21:12:05.734Z,24.20
2018-07-28T21:14:40.792Z,24.10
2018-07-28T21:19:50.488Z,24.10
2018-07-28T21:22:25.320Z,24.10
2018-07-28T21:25:00.544Z,24.00
2018-07-28T21:27:35.513Z,24.00
2018-07-28T21:30:10.982Z,24.10
2018-07-28T21:32:46.245Z,24.00
2018-07-28T21:35:21.666Z,24.00
2018-07-28T21:37:56.682Z,24.00
2018-07-28T21:40:31.872Z,24.00
2018-07-28T21:45:41.418Z,24.00
2018-07-28T21:48:16.329Z,23.90
2018-07-28T21:50:51.255Z,23.90
2018-07-28T21:53:26.394Z,23.90
2018-07-28T21:56:01.290Z,23.70
2018-07-28T21:58:36.660Z,23.70
2018-07-28T22:01:16.567Z,23.60
2018-07-28T22:03:51.444Z,23.60
2018-07-28T22:06:26.576Z,23.50
2018-07-28T22:09:01.575Z,23.40
2018-07-28T22:11:36.660Z,23.50
2018-07-28T22:14:11.766Z,23.40
2018-07-28T22:16:47.015Z,23.40
2018-07-28T22:19:22.165Z,23.40
2018-07-28T22:21:57.246Z,23.40
2018-07-28T22:24:32.570Z,23.30
2018-07-28T22:27:07.863Z,23.30
2018-07-28T22:29:43.074Z,23.30
2018-07-28T22:32:18.040Z,23.20
2018-07-28T22:34:53.062Z,23.20
2018-07-28T22:37:27.998Z,23.30
2018-07-28T22:40:03.416Z,23.30
2018-07-28T22:42:47.360Z,23.30
2018-07-28T22:45:22.226Z,23.20
2018-07-28T22:47:57.496Z,23.30
2018-07-28T22:50:32.451Z,23.40
2018-07-28T22:53:08.462Z,23.20
2018-07-28T22:55:44.170Z,23.20
2018-07-28T22:58:19.295Z,23.20
2018-07-28T23:03:28.992Z,23.10
2018-07-28T23:06:04.483Z,23.10
2018-07-28T23:08:33.743Z,23.00
2018-07-28T23:11:08.978Z,23.00
2018-07-28T23:16:18.162Z,22.90
2018-07-28T23:18:53.882Z,22.80
2018-07-28T23:21:29.123Z,22.70
2018-07-28T23:23:58.568Z,22.70
2018-07-28T23:26:34.061Z,22.80
2018-07-28T23:29:08.875Z,22.70
2018-07-28T23:31:43.905Z,22.60
2018-07-28T23:34:18.761Z,22.60
2018-07-28T23:36:48.147Z,22.60
2018-07-28T23:39:23.252Z,22.60
2018-07-28T23:41:58.231Z,22.50
2018-07-28T23:44:32.999Z,22.50
2018-07-28T23:47:08.091Z,22.50
2018-07-28T23:49:43.422Z,22.40
2018-07-28T23:52:18.278Z,22.40
2018-07-28T23:54:53.388Z,22.40
2018-07-28T23:57:28.323Z,22.40
